Pagrindinis puslapis
METAR-TAF:

METAR-TAF

Oro uostai :

Tanabe, Japonija

platuma: 33-44N, ilguma: 135-23E, Aukštis: 105 m

Dabartinis oras

Ataskaita buvo paskelbta 55 minutes, ne 02:00 UTC
Vėjas 5 kt iš Pietų/Pietryčių, svyruoja nuo Rytų ir Pietvakarių
Temperatūra 29°C
Drėgmė 89%
Slėgis 1013 hPa
Matomumas 10 km arba daugiau
Mažai debesys ne aukštis 1000 ft
Išsisklaidę debesys ne aukštis 3500 ft
Su prošvaistėmis

METAR: RJBD 090200Z 16005KT 100V230 9999 FEW010 SCT035 BKN/// 29/27 Q1013

Laikas: 11:55 (02:55 UTC)


TAF: trūkstamas

Orai ataskaitas ir orų prognozės (METAR, TAF).

turimą stotys yra geltonos ir raudonos taškus žemėlapyje.

Perkelti pele per norėdami pamatyti stoties vardą.

Tada spustelėkite, norėdami matyti oro stebėjimo ir prognozės.

Norėdami pakeisti žemėlapį: spustelėkite ant žalios mygtukų su juodo kryžiaus žemyn,; žalią mygtuką su brūkšneliu, jei norite nutolinti; arba žalių rodyklių gretimoms žemėlapius.


METAR-TAF: